Tiempo atmosférico en la estación meteorológica de Ordizia, Gipuzkoa (290 m.)



Fecha
DESCASC
Temp. máxima en grados centígrados (hora)
DESCASC
Temp. mínima en grados centígrados (hora)
DESCASC
Temp. media en grados centígrados
DESCASC
Racha de viento máxima en m/sg (hora)
DESCASC
Velocidad máxima media en intervalos de 10 minutos(hora)
DESCASC
Precipitaciones diarias en mm
DESCASC
Precipitaciones de 00:00 a 06:00 en mm
DESCASC
Precipitaciones de 06:00 a 12:00 en mm
DESCASC
Precipitaciones de 12:00 a 18:00 en mm
DESCASC
Precipitaciones de 18:00 a 24:00 en mm
DESCASC
30-12-2019 -- (--) -- (--) -- -- (--) -- (--) -- 0 0 0 --
31-12-2019 11.2 (15:30) -1.9 (-00:0) 4.6 3.89 (14:20) 2.22 (14:20) 0 0 0 0 0
02-01-2020 11.5 (15:30) -1.4 (-00:0) 5.1 2.5 (15:50) 1.67 (15:20) 0 0 0 0 0
12-01-2020 11.7 (15:40) -1.2 (-00:0) 5.2 2.78 (18:40) 1.94 (18:40) 0 0 0 0 0
29-12-2019 12.8 (15:20) -0.5 (-00:0) 6.2 1.67 (01:10) 1.39 (17:30) 0 0 0 0 0
28-12-2019 13.5 (15:40) -0.3 (00:00) 6.6 3.61 (15:00) 2.5 (15:00) 0 0 0 0 0
13-01-2020 12.9 (16:40) -0.1 (00:00) 6.4 8.61 (16:30) 3.89 (18:20) 0 0 0 0 0
03-01-2020 6.1 (23:59) 0.2 (00:00) 3.1 2.5 (01:20) 1.39 (05:50) 1.2 0 0 0.8 0.4
27-12-2019 12.2 (16:00) 0.3 (00:00) 6.2 3.33 (15:50) 1.94 (15:20) 0 0 0 0 0
06-01-2020 13.9 (15:20) 0.6 (00:00) 7.2 6.39 (17:00) 3.89 (17:00) 0 0 0 0 0
11-01-2020 11 (15:30) 1.2 (00:00) 6.1 2.78 (16:10) 1.94 (19:50) 0 0 0 0 0
07-01-2020 13.8 (15:50) 1.4 (00:00) 7.6 2.78 (17:30) 1.67 (03:00) 0 0 0 0 0
01-01-2020 12.3 (15:30) 2.3 (00:00) 7.3 3.89 (13:40) 2.22 (18:00) 0 0 0 0 0
05-01-2020 11.1 (15:20) 3.6 (00:00) 7.4 3.89 (14:20) 2.5 (17:20) 0 0 0 0 0
08-01-2020 16 (15:00) 3.8 (00:00) 9.9 6.67 (23:10) 3.89 (23:30) 0 0 0 0 0
26-12-2019 17.4 (00:00) 4.1 (00:00) 10.7 8.89 (06:50) 4.17 (05:10) 0 0 0 0 0
25-12-2019 17.9 (15:20) 4.1 (00:00) 11 5.28 (18:10) 2.78 (20:30) 0 0 0 0 0
17-01-2020 14 (01:50) 5 (00:00) 9.5 13.33 (00:50) 6.67 (01:00) 1.4 0 1.4 0 0
24-12-2019 17.8 (15:30) 5.6 (00:00) 11.7 3.06 (14:30) 2.22 (14:30) 0 0 0 0 0
04-01-2020 10.7 (12:50) 5.9 (00:00) 8.3 5.83 (15:50) 3.33 (15:50) 2.4 0.6 1.4 0.4 0
10-01-2020 9.7 (15:30) 5.9 (00:00) 7.8 6.11 (16:00) 2.78 (04:10) 10.4 1 3.8 4.4 1.2
23-12-2019 14.4 (15:00) 6.1 (00:00) 10.2 7.5 (01:40) 3.61 (01:40) 0.2 0.2 0 0 0
21-12-2019 18.9 (15:10) 6.5 (00:00) 12.7 23.61 (16:20) 13.33 (15:00) 1.2 0 0 1.2 0
22-12-2019 15.1 (13:50) 7.8 (00:00) 11.5 15.56 (13:50) 8.33 (14:20) 9 1.6 0.2 2.4 4.8
09-01-2020 15.2 (14:40) 8.2 (00:00) 11.7 14.44 (18:00) 6.67 (17:50) 2.2 0 0 0 2.2
14-01-2020 14.9 (14:10) 8.6 (00:00) 11.8 13.89 (20:50) 7.5 (20:50) 0 0 0 0 0
15-01-2020 14.9 (16:00) 8.9 (00:00) 11.9 15.28 (04:20) 7.78 (04:20) 0 0 0 0 0
20-12-2019 14.7 (00:30) 9 (00:00) 11.8 20.83 (00:50) 10.56 (00:50) 13.8 6.2 0 3.6 4
16-01-2020 15.5 (13:50) 10.9 (00:00) 13.2 17.22 (20:40) 7.78 (17:00) 0 0 0 0 0
19-12-2019 15.3 (16:30) 12.1 (04:20) 13.7 23.89 (18:00) 12.5 (18:00) 0.6 0 0 0 0.6

Gráficas

Temp. máximas Temp. mínimas Temp. medias Precipitaciones Rachas de viento máximas Velocidades máximas media en intervalos de 10 minutos

Datos horarios

Fecha y hora oficial Temperatura (ºC) Velocidad del viento (km/h) Dirección del viento Racha (km/h) Dirección de racha Precipitación (mm) Presión (hPa) Tendencia (hPa) Humedad (%)
2020-01-17 23:00:00 5.6 3 Este 6 Oeste 0 -- -- 90
2020-01-17 22:00:00 5.6 3 Sudeste 8 Oeste 0 -- -- 89
2020-01-17 21:00:00 6.1 4 Noroeste 10 Noroeste 0 -- -- 88
2020-01-17 20:00:00 7.3 6 Noroeste 9 Noroeste 0 -- -- 78
2020-01-17 19:00:00 7.8 5 Oeste 12 Noroeste 0 -- -- 79
2020-01-17 18:00:00 9 9 Noroeste 23 Norte 0 -- -- 70
2020-01-17 17:00:00 9.9 3 Sur 19 Oeste 0 -- -- 72
2020-01-17 16:00:00 9.7 4 Sudoeste 12 Nordeste 0 -- -- 73
2020-01-17 15:00:00 9.6 9 Sudoeste 26 Oeste 0 -- -- 75
2020-01-17 14:00:00 9.5 11 Oeste 23 Noroeste 0 -- -- 75
2020-01-17 13:00:00 9.1 6 Este 11 Este 0 -- -- 82
2020-01-17 12:00:00 8.8 4 Sudoeste 19 Sudoeste 0 -- -- 85
2020-01-17 11:00:00 8.2 4 Sudoeste 12 Sudeste 0.8 -- -- 92
2020-01-17 10:00:00 8.6 3 Nordeste 34 Noroeste 0.6 -- -- 86
2020-01-17 09:00:00 9.2 17 Noroeste 33 Noroeste 0 -- -- 81
2020-01-17 08:00:00 11.4 17 Oeste 31 Oeste 0 -- -- 71
2020-01-17 07:00:00 12.3 15 Sudoeste 26 Sudoeste 0 -- -- 64
2020-01-17 06:00:00 12 8 Noroeste 24 Sudoeste 0 -- -- 62
2020-01-17 05:00:00 12.5 16 Oeste 34 Oeste 0 -- -- 60
2020-01-17 04:00:00 12.9 13 Sudoeste 34 Sur 0 -- -- 58
2020-01-17 03:00:00 13.4 13 Sudoeste 37 Sur 0 -- -- 56
2020-01-17 02:00:00 13.9 11 Sur 36 Sudoeste 0 -- -- 55
2020-01-17 01:00:00 13.9 24 Sudoeste 48 Sudoeste 0 -- -- 54
2020-01-17 00:00:00 13 23 Sur 47 Sudeste 0 -- -- 59
2020-01-16 23:00:00 13.1 16 Sudoeste 46 Sur 0 -- -- 60
2020-01-16 22:00:00 13.6 14 Oeste 41 Sudeste 0 -- -- 59
2020-01-16 21:00:00 13.9 22 Sur 62 Sudeste 0 -- -- 61
2020-01-16 20:00:00 13.9 24 Sur 44 Sur 0 -- -- 64
2020-01-16 19:00:00 13.9 24 Sudeste 42 Sudeste 0 -- -- 65
2020-01-16 18:00:00 14.3 14 Sur 43 Este 0 -- -- 65
2020-01-16 17:00:00 15.1 28 Sur 48 Sudeste 0 -- -- 62
2020-01-16 16:00:00 15.3 12 Sudeste 33 Sudeste 0 -- -- 61
2020-01-16 15:00:00 14.3 21 Sudeste 37 Sudeste 0 -- -- 63
2020-01-16 14:00:00 14.9 17 Sur 43 Sudeste 0 -- -- 60
2020-01-16 13:00:00 14.2 18 Sur 43 Sur 0 -- -- 63
2020-01-16 12:00:00 12.9 17 Oeste 39 Oeste 0 -- -- 65
2020-01-16 11:00:00 12.3 17 Oeste 36 Oeste 0 -- -- 66
2020-01-16 10:00:00 12.1 15 Oeste 30 Sudoeste 0 -- -- 68
2020-01-16 09:00:00 11.1 12 Oeste 25 Oeste 0 -- -- 69
2020-01-16 08:00:00 11.2 9 Oeste 22 Oeste 0 -- -- 68
2020-01-16 07:00:00 11.4 7 Noroeste 17 Oeste 0 -- -- 67
2020-01-16 06:00:00 11.1 7 Oeste 19 Sudoeste 0 -- -- 67
2020-01-16 05:00:00 11.5 8 Oeste 25 Oeste 0 -- -- 65
2020-01-16 04:00:00 11 11 Oeste 23 Noroeste 0 -- -- 65
2020-01-16 03:00:00 11.5 9 Oeste 20 Sudoeste 0 -- -- 63
2020-01-16 02:00:00 11.2 9 Sudoeste 20 Oeste 0 -- -- 65
2020-01-16 01:00:00 11.5 11 Noroeste 23 Noroeste 0 -- -- 64
2020-01-16 00:00:00 11.5 6 Sudoeste 23 Oeste 0 -- -- 63
2020-01-15 23:00:00 11.2 7 Oeste 17 Oeste 0 -- -- 65
2020-01-15 22:00:00 10.4 6 Oeste 13 Oeste 0 -- -- 70
2020-01-15 21:00:00 11.2 0 Calma 12 Oeste 0 -- -- 67
2020-01-15 20:00:00 11.9 3 Noroeste 9 Oeste 0 -- -- 65
2020-01-15 19:00:00 12.3 5 Este 12 Oeste 0 -- -- 65
2020-01-15 18:00:00 13.7 6 Oeste 17 Sudoeste 0 -- -- 59
2020-01-15 17:00:00 14.7 8 Sudoeste 36 Oeste 0 -- -- 57
2020-01-15 16:00:00 14.9 20 Oeste 39 Oeste 0 -- -- 56
2020-01-15 15:00:00 14.2 12 Oeste 30 Sudoeste 0 -- -- 57
2020-01-15 14:00:00 12.4 17 Sur 41 Sur 0 -- -- 59
2020-01-15 13:00:00 11.3 7 Nordeste 35 Sudeste 0 -- -- 60
2020-01-15 12:00:00 11.2 9 Sudeste 32 Sur 0 -- -- 61
2020-01-15 11:00:00 10.8 18 Sur 47 Sudeste 0 -- -- 62
2020-01-15 10:00:00 10.9 15 Sudeste 42 Sudeste 0 -- -- 60
2020-01-15 09:00:00 10.9 19 Sudeste 46 Sudeste 0 -- -- 58
2020-01-15 08:00:00 9.7 7 Sur 20 Sudeste 0 -- -- 62
2020-01-15 07:00:00 8.9 8 Sudoeste 34 Sur 0 -- -- 64
2020-01-15 06:00:00 9.8 19 Sur 42 Sur 0 -- -- 62
2020-01-15 05:00:00 10.3 18 Sudoeste 55 Sur 0 -- -- 60
2020-01-15 04:00:00 10.2 22 Sur 42 Sur 0 -- -- 60
2020-01-15 03:00:00 9.8 23 Sur 42 Sur 0 -- -- 60
2020-01-15 02:00:00 9.6 12 Sur 34 Sur 0 -- -- 60
2020-01-15 01:00:00 9.5 15 Sur 28 Sudeste 0 -- -- 60
2020-01-15 00:00:00 9.5 14 Sur 32 Sur 0 -- -- 60
2020-01-14 23:00:00 8.6 14 Sur 41 Sur 0 -- -- 63
2020-01-14 22:00:00 9.3 19 Sur 43 Sudoeste 0 -- -- 59
2020-01-14 21:00:00 9.8 20 Sur 50 Sur 0 -- -- 57
2020-01-14 20:00:00 9.8 15 Sur 34 Sudeste 0 -- -- 57
2020-01-14 19:00:00 11 21 Sudeste 33 Sudeste 0 -- -- 56
2020-01-14 18:00:00 12.5 15 Sudeste 33 Sudoeste 0 -- -- 52
2020-01-14 17:00:00 13.5 18 Sur 38 Sudeste 0 -- -- 48
2020-01-14 16:00:00 13.9 14 Sudoeste 44 Sudeste 0 -- -- 49
2020-01-14 15:00:00 14.6 18 Sur 41 Sudoeste 0 -- -- 49
2020-01-14 14:00:00 14.6 19 Sur 43 Sudeste 0 -- -- 51
2020-01-14 13:00:00 13.6 24 Sur 45 Sur 0 -- -- 58
2020-01-14 12:00:00 13.1 19 Sur 40 Sudeste 0 -- -- 59
2020-01-14 11:00:00 11.8 24 Sudeste 43 Sudeste 0 -- -- 65
2020-01-14 10:00:00 10 18 Sur 38 Sur 0 -- -- 68
2020-01-14 09:00:00 9.3 12 Sur 31 Oeste 0 -- -- 70
2020-01-14 08:00:00 9 12 Oeste 33 Sur 0 -- -- 69
2020-01-14 07:00:00 9.3 13 Sudoeste 32 Este 0 -- -- 67
2020-01-14 06:00:00 9.1 13 Sudoeste 31 Sudoeste 0 -- -- 65
2020-01-14 05:00:00 8.7 11 Sudoeste 36 Sudoeste 0 -- -- 64
2020-01-14 04:00:00 9.4 17 Oeste 46 Sur 0 -- -- 59
2020-01-14 03:00:00 10 13 Sudoeste 38 Sudoeste 0 -- -- 54
2020-01-14 02:00:00 10.2 13 Sudoeste 30 Sur 0 -- -- 52
2020-01-14 01:00:00 9.7 12 Sudoeste 27 Sur 0 -- -- 51
2020-01-14 00:00:00 9.5 11 Sudoeste 28 Sudoeste 0 -- -- 50
2020-01-13 23:00:00 9.4 13 Oeste 30 Sudeste 0 -- -- 46
2020-01-13 22:00:00 9.4 10 Sudoeste 27 Sur 0 -- -- 50
2020-01-13 21:00:00 9.9 10 Sur 28 Sur 0 -- -- 47
2020-01-13 20:00:00 10.3 13 Sudoeste 28 Sur 0 -- -- 46
2020-01-13 19:00:00 10.6 10 Sur 30 Sudeste 0 -- -- 47
2020-01-13 18:00:00 11.1 12 Sudoeste 28 Sudoeste 0 -- -- 48
2020-01-13 17:00:00 12.2 10 Sudoeste 31 Sur 0 -- -- 49
2020-01-13 16:00:00 12.2 7 Sudoeste 28 Sudeste 0 -- -- 49
2020-01-13 15:00:00 12.5 9 Sur 26 Sur 0 -- -- 54
2020-01-13 14:00:00 10.9 10 Oeste 26 Sudeste 0 -- -- 60
2020-01-13 13:00:00 7.9 5 Sudoeste 14 Noroeste 0 -- -- 97
2020-01-13 12:00:00 4.3 4 Oeste 8 Noroeste 0 -- -- 100
2020-01-13 11:00:00 1.5 3 Oeste 6 Sudeste 0 -- -- 100
2020-01-13 10:00:00 0.5 3 Sudoeste 7 Sudeste 0 -- -- 100
2020-01-13 09:00:00 0.1 2 Sur 5 Sudeste 0 -- -- 100
2020-01-13 08:00:00 0 0 Calma 6 Oeste 0 -- -- 100
2020-01-13 07:00:00 0.1 0 Calma 7 Este 0 -- -- 100
2020-01-13 06:00:00 0 4 Oeste 5 Oeste 0 -- -- 100
2020-01-13 05:00:00 -0.1 3 Oeste 5 Sudoeste 0 -- -- 100
2020-01-13 04:00:00 0.7 3 Oeste 4 Oeste 0 -- -- 100
2020-01-13 03:00:00 1.1 0 Calma -- -- 0 -- -- 99
2020-01-13 02:00:00 1.7 0 Calma 4 Oeste 0 -- -- 100
2020-01-13 01:00:00 2.2 2 Noroeste 4 Oeste 0 -- -- 99
2020-01-13 00:00:00 2.5 2 Oeste 5 Sudoeste 0 -- -- 98
2020-01-12 23:00:00 2.9 0 Calma 4 Oeste 0 -- -- 97
2020-01-12 22:00:00 3.8 0 Calma 4 Oeste 0 -- -- 94
2020-01-12 21:00:00 4.6 0 Calma 4 Noroeste 0 -- -- 92
2020-01-12 20:00:00 5.6 2 Sur 4 Noroeste 0 -- -- 89
2020-01-12 19:00:00 6.9 3 Noroeste 10 Oeste 0 -- -- 81
2020-01-12 18:00:00 9.1 3 Oeste 5 Sudeste 0 -- -- 74
2020-01-12 17:00:00 11.6 3 Este 8 Sudeste 0 -- -- 60
2020-01-12 16:00:00 11.6 5 Sudeste 9 Este 0 -- -- 63
2020-01-12 15:00:00 11 4 Sudeste 8 Sudeste 0 -- -- 67
2020-01-12 14:00:00 9.2 3 Sudeste 7 Sur 0 -- -- 74
2020-01-12 13:00:00 6.6 3 Sudeste 8 Este 0 -- -- 98
2020-01-12 12:00:00 3.3 3 Sudeste 6 Este 0 -- -- 100
2020-01-12 11:00:00 1.2 2 Noroeste 4 Nordeste 0 -- -- 100
2020-01-12 10:00:00 -0.8 0 Calma 4 Oeste 0 -- -- 100
2020-01-12 09:00:00 -1.1 3 Oeste 5 Oeste 0 -- -- 100
2020-01-12 08:00:00 -0.9 2 Oeste 5 Oeste 0 -- -- 100
2020-01-12 07:00:00 -0.7 2 Sur 5 Sur 0 -- -- 100
2020-01-12 06:00:00 -0.5 2 Oeste 5 Oeste 0 -- -- 100
2020-01-12 05:00:00 -0.4 4 Oeste 6 Oeste 0 -- -- 100
2020-01-12 04:00:00 0.1 2 Oeste 5 Oeste 0 -- -- 100
2020-01-12 03:00:00 0.4 0 Calma 5 Oeste 0 -- -- 100
2020-01-12 02:00:00 0.8 4 Oeste 6 Sudoeste 0 -- -- 100
2020-01-12 01:00:00 1.1 0 Calma 5 Oeste 0 -- -- 100
2020-01-12 00:00:00 1.2 4 Oeste 6 Oeste 0 -- -- 100
2020-01-11 23:00:00 2.1 3 Sudoeste 7 Noroeste 0 -- -- 99
2020-01-11 22:00:00 2.8 3 Noroeste 6 Sudoeste 0 -- -- 98
2020-01-11 21:00:00 3.4 2 Sudoeste 6 Oeste 0 -- -- 96
2020-01-11 20:00:00 4.4 6 Oeste 10 Oeste 0 -- -- 95
2020-01-11 19:00:00 5.4 3 Oeste 5 Sudoeste 0 -- -- 91
2020-01-11 18:00:00 7.4 2 Oeste 8 Noroeste 0 -- -- 82
2020-01-11 17:00:00 10.4 3 Este 10 Sudeste 0 -- -- 67
2020-01-11 16:00:00 11 2 Sudoeste 8 Sudeste 0 -- -- 69
2020-01-11 15:00:00 10.1 3 Sudeste 8 Sudeste 0 -- -- 75
2020-01-11 14:00:00 7.9 3 Sudeste 8 Sudeste 0 -- -- 100
2020-01-11 13:00:00 5.2 3 Sudeste 7 Sur 0 -- -- 100
2020-01-11 12:00:00 4.4 3 Sur 7 Sur 0 -- -- 100
2020-01-11 11:00:00 3.7 3 Sur 6 Sudoeste 0 -- -- 100
2020-01-11 10:00:00 3.5 3 Sudoeste 6 Sudeste 0 -- -- 100
2020-01-11 09:00:00 3.5 4 Sudoeste 7 Sur 0 -- -- 100
2020-01-11 08:00:00 3.6 5 Oeste 9 Oeste 0 -- -- 100
2020-01-11 07:00:00 3.9 3 Oeste 6 Sudoeste 0 -- -- 100
2020-01-11 06:00:00 4.1 3 Sudoeste 7 Sudoeste 0 -- -- 100
2020-01-11 05:00:00 4.5 3 Oeste 6 Sur 0 -- -- 100
2020-01-11 04:00:00 5.1 0 Calma 6 Noroeste 0 -- -- 100
2020-01-11 03:00:00 5.4 2 Sur 4 Sur 0 -- -- 100
2020-01-11 02:00:00 5.6 2 Oeste 5 Noroeste 0 -- -- 100
2020-01-11 01:00:00 5.7 2 Noroeste 7 Este 0 -- -- 100
2020-01-11 00:00:00 5.9 4 Nordeste 6 Nordeste 0 -- -- 100
2020-01-10 23:00:00 6.8 0 Calma 6 Sudeste 0 -- -- 100
2020-01-10 22:00:00 6.9 3 Este 6 Noroeste 0.4 -- -- 100
2020-01-10 21:00:00 7.1 0 Calma 5 Este 0.4 -- -- 99
2020-01-10 20:00:00 7.2 0 Calma 8 Noroeste 0.2 -- -- 98
2020-01-10 19:00:00 7.3 5 Oeste 9 Este 0.2 -- -- 97
2020-01-10 18:00:00 7.7 5 Nordeste 17 Este 0.6 -- -- 94
2020-01-10 17:00:00 8.5 5 Norte 19 Norte 0.2 -- -- 84
2020-01-10 16:00:00 9.1 10 Noroeste 22 Oeste 0.4 -- -- 85
2020-01-10 15:00:00 9.4 4 Sudeste 12 Este 0.6 -- -- 91
2020-01-10 14:00:00 8.4 3 Norte 18 Norte 2.6 -- -- 93
2020-01-10 13:00:00 8.4 4 Sudeste 8 Este 0 -- -- 97
2020-01-10 12:00:00 7.5 0 Calma 9 Este 1.8 -- -- 99
2020-01-10 11:00:00 7 4 Nordeste 12 Este 0.6 -- -- 98
2020-01-10 10:00:00 6.5 4 Este 9 Noroeste 0.4 -- -- 99
2020-01-10 09:00:00 6.3 5 Nordeste 10 Este 0.6 -- -- 98
2020-01-10 08:00:00 6.3 5 Noroeste 12 Este 0.2 -- -- 98
2020-01-10 07:00:00 6.5 3 Nordeste 9 Sudeste 0.2 -- -- 97
2020-01-10 06:00:00 6.8 6 Nordeste 10 Este 0.6 -- -- 94
2020-01-10 05:00:00 7.2 5 Oeste 18 Oeste 0 -- -- 90
2020-01-10 04:00:00 7.8 9 Sudoeste 22 Oeste 0.2 -- -- 89
2020-01-10 03:00:00 7.8 8 Oeste 21 Oeste 0 -- -- 92
2020-01-10 02:00:00 7.8 4 Oeste 9 Noroeste 0.2 -- -- 96
2020-01-10 01:00:00 8 4 Norte 10 Este 0 -- -- 96
2020-01-10 00:00:00 8.2 3 Norte 11 Este 0 -- -- 98
2020-01-09 23:00:00 8.4 6 Este 12 Este 0.2 -- -- 96
2020-01-09 22:00:00 8.8 0 Calma 10 Este 0.8 -- -- 95
2020-01-09 21:00:00 9.2 9 Este 12 Este 0.8 -- -- 92
2020-01-09 20:00:00 10.7 4 Sudoeste 14 Noroeste 0.4 -- -- 80
2020-01-09 19:00:00 11.1 7 Noroeste 28 Noroeste 0 -- -- 76
2020-01-09 18:00:00 11.8 19 Oeste 52 Oeste 0 -- -- 77
2020-01-09 17:00:00 13.4 13 Sur 35 Sudeste 0 -- -- 61
2020-01-09 16:00:00 14.1 18 Sur 42 Sur 0 -- -- 59
2020-01-09 15:00:00 15 16 Sur 40 Sudeste 0 -- -- 56
2020-01-09 14:00:00 14.7 8 Sudoeste 36 Sur 0 -- -- 55
2020-01-09 13:00:00 14 13 Sur 38 Sur 0 -- -- 61
2020-01-09 12:00:00 14 12 Sur 26 Oeste 0 -- -- 63
2020-01-09 11:00:00 11.4 11 Oeste 32 Oeste 0 -- -- 70
2020-01-09 10:00:00 10.8 15 Oeste 27 Sudoeste 0 -- -- 70
2020-01-09 09:00:00 10 11 Oeste 31 Oeste 0 -- -- 73
2020-01-09 08:00:00 10.2 12 Oeste 24 Oeste 0 -- -- 72
2020-01-09 07:00:00 9.9 13 Oeste 31 Oeste 0 -- -- 73
2020-01-09 06:00:00 10.2 14 Oeste 28 Oeste 0 -- -- 73
2020-01-09 05:00:00 10.4 16 Oeste 25 Oeste 0 -- -- 70
2020-01-09 04:00:00 10.4 10 Oeste 22 Oeste 0 -- -- 67
2020-01-09 03:00:00 10.6 10 Oeste 20 Oeste 0 -- -- 65
2020-01-09 02:00:00 11.2 11 Oeste 23 Oeste 0 -- -- 64
2020-01-09 01:00:00 11.5 13 Oeste 24 Noroeste 0 -- -- 66
2020-01-09 00:00:00 11.3 13 Oeste 24 Oeste 0 -- -- 68
2020-01-08 23:00:00 9.9 10 Sudoeste 19 Oeste 0 -- -- 75
2020-01-08 22:00:00 8.4 7 Oeste 13 Oeste 0 -- -- 88
2020-01-08 21:00:00 10.3 6 Oeste 12 Oeste 0 -- -- 68
2020-01-08 20:00:00 9.8 4 Oeste 11 Oeste 0 -- -- 84
2020-01-08 19:00:00 10.7 4 Noroeste 7 Noroeste 0 -- -- 88
2020-01-08 18:00:00 13 4 Oeste 6 Este 0 -- -- 80
2020-01-08 17:00:00 15.2 4 Este 11 Este 0 -- -- 72
2020-01-08 16:00:00 15.6 6 Sudeste 13 Este 0 -- -- 70
2020-01-08 15:00:00 16 7 Sudeste 11 Sur 0 -- -- 68
2020-01-08 14:00:00 14.3 3 Sudeste 6 Sudeste 0 -- -- 77
2020-01-08 13:00:00 10.5 3 Sur 9 Sur 0 -- -- 100
2020-01-08 12:00:00 7.5 2 Nordeste 6 Oeste 0 -- -- 100
2020-01-08 11:00:00 5 3 Oeste 7 Sudeste 0 -- -- 100
2020-01-08 10:00:00 4.2 2 Sur 7 Noroeste 0 -- -- 100
2020-01-08 09:00:00 3.9 0 Calma 5 Oeste 0 -- -- 100
2020-01-08 08:00:00 3.9 3 Oeste 6 Oeste 0 -- -- 100
2020-01-08 07:00:00 3.8 2 Sur 8 Sudoeste 0 -- -- 100
2020-01-08 06:00:00 3.9 3 Oeste 5 Sudoeste 0 -- -- 100
2020-01-08 05:00:00 5 3 Noroeste 4 Este 0 -- -- 100
2020-01-08 04:00:00 4.6 0 Calma 5 Noroeste 0 -- -- 100
2020-01-08 03:00:00 5.2 2 Oeste 5 Noroeste 0 -- -- 100
2020-01-08 02:00:00 5.5 2 Oeste 5 Sudoeste 0 -- -- 100
2020-01-08 01:00:00 6 3 Oeste 4 Oeste 0 -- -- 99
2020-01-08 00:00:00 6.2 0 Calma 3 Oeste 0 -- -- 98
2020-01-07 23:00:00 6.5 0 Calma 3 Noroeste 0 -- -- 98
2020-01-07 22:00:00 7.2 0 Calma 5 Oeste 0 -- -- 97
2020-01-07 21:00:00 7.5 0 Calma 4 Noroeste 0 -- -- 95
2020-01-07 20:00:00 8.7 3 Oeste 5 Oeste 0 -- -- 92
2020-01-07 19:00:00 9.7 0 Calma 5 Nordeste 0 -- -- 86
2020-01-07 18:00:00 11.5 0 Calma 10 Este 0 -- -- 79
2020-01-07 17:00:00 13.8 2 Sur 9 Este 0 -- -- 70
2020-01-07 16:00:00 13.7 4 Sudeste 7 Sur 0 -- -- 70
2020-01-07 15:00:00 13.1 2 Sur 8 Sudeste 0 -- -- 69
2020-01-07 14:00:00 11.3 5 Sudeste 8 Sudeste 0 -- -- 75
2020-01-07 13:00:00 8.7 4 Sudeste 9 Este 0 -- -- 89
2020-01-07 12:00:00 5.5 3 Sur 7 Sudeste 0 -- -- 100
2020-01-07 11:00:00 3.5 2 Sudoeste 5 Sudeste 0 -- -- 100
2020-01-07 10:00:00 1.8 3 Este 6 Este 0 -- -- 100
2020-01-07 09:00:00 1.4 0 Calma 4 Noroeste 0 -- -- 100
2020-01-07 08:00:00 1.9 2 Sur 6 Noroeste 0 -- -- 100
2020-01-07 07:00:00 2.6 0 Calma 6 Oeste 0 -- -- 100
2020-01-07 06:00:00 2.3 4 Sudoeste 6 Sudoeste 0 -- -- 100
2020-01-07 05:00:00 3.5 2 Noroeste 7 Este 0 -- -- 100
2020-01-07 04:00:00 3.5 0 Calma 8 Oeste 0 -- -- 99
2020-01-07 03:00:00 3.8 6 Noroeste 8 Noroeste 0 -- -- 100
2020-01-07 02:00:00 3.5 3 Oeste 5 Oeste 0 -- -- 99
2020-01-07 01:00:00 3.6 4 Oeste 5 Oeste 0 -- -- 99
2020-01-07 00:00:00 4 2 Sudoeste 5 Oeste 0 -- -- 97
2020-01-06 23:00:00 4.6 4 Oeste 8 Sudoeste 0 -- -- 96
2020-01-06 22:00:00 5.2 2 Oeste 6 Noroeste 0 -- -- 93
2020-01-06 21:00:00 6.1 4 Oeste 6 Oeste 0 -- -- 91
2020-01-06 20:00:00 6.9 4 Noroeste 8 Este 0 -- -- 86
2020-01-06 19:00:00 8.2 0 Calma 9 Este 0 -- -- 82
2020-01-06 18:00:00 9.2 3 Norte 22 Este 0 -- -- 76
2020-01-06 17:00:00 11.3 14 Este 23 Este 0 -- -- 67
2020-01-06 16:00:00 13.6 6 Este 10 Sudeste 0 -- -- 59
2020-01-06 15:00:00 13.6 5 Sudeste 10 Este 0 -- -- 59
2020-01-06 14:00:00 12.1 6 Sudeste 11 Sudeste 0 -- -- 65
2020-01-06 13:00:00 10 4 Sudeste 9 Sudeste 0 -- -- 76
2020-01-06 12:00:00 6.9 3 Sudeste 7 Sudeste 0 -- -- 93
2020-01-06 11:00:00 3.7 3 Sudeste 9 Sudeste 0 -- -- 100
2020-01-06 10:00:00 1 2 Sur 7 Noroeste 0 -- -- 100